Terminal Aerodrome Forecast
Issued by NWS

Home | Current Version | Previous Version | Text Only | Print | Product List | Glossary On
Versions: 1 2 3 4 5 6 7 8 9 10 11 12 13 14 15
000
FTUS45 KBOU 210125 AAA
TAFAPA
TAF AMD
KAPA 210125Z 2101/2124 28011G20KT P6SM SCT100 BKN220
     FM210200 24011KT P6SM SCT100 BKN220
     FM210300 20008KT P6SM FEW100 BKN220
     FM211400 VRB05KT P6SM FEW140 BKN220
     FM211700 01011KT P6SM FEW100 BKN220=

USA.gov is the U.S. government's official web portal to all federal, state and local government web resources and services.